sensor_id;sensor_type;location;lat;lon;timestamp;temperature;humidity
6443;DHT22;3254;47.372;8.512;2023-03-01T00:01:27;0.40;1.00
6443;DHT22;3254;47.372;8.512;2023-03-01T00:03:53;0.40;1.00
6443;DHT22;3254;47.372;8.512;2023-03-01T00:06:20;0.40;1.00
6443;DHT22;3254;47.372;8.512;2023-03-01T00:08:46;0.40;1.00
6443;DHT22;3254;47.372;8.512;2023-03-01T00:13:39;0.40;1.00
6443;DHT22;3254;47.372;8.512;2023-03-01T00:16:08;0.40;1.00
6443;DHT22;3254;47.372;8.512;2023-03-01T00:18:34;0.40;1.00
6443;DHT22;3254;47.372;8.512;2023-03-01T00:21:00;0.40;1.00
6443;DHT22;3254;47.372;8.512;2023-03-01T00:23:25;0.40;1.00
6443;DHT22;3254;47.372;8.512;2023-03-01T00:25:52;0.40;1.00
6443;DHT22;3254;47.372;8.512;2023-03-01T00:28:18;0.40;1.00
6443;DHT22;3254;47.372;8.512;2023-03-01T00:30:44;0.50;1.00
6443;DHT22;3254;47.372;8.512;2023-03-01T00:33:09;0.40;1.00
6443;DHT22;3254;47.372;8.512;2023-03-01T00:35:35;0.40;1.00
6443;DHT22;3254;47.372;8.512;2023-03-01T00:38:02;0.40;1.00
6443;DHT22;3254;47.372;8.512;2023-03-01T00:40:28;0.40;1.00
6443;DHT22;3254;47.372;8.512;2023-03-01T00:42:54;0.40;1.00
6443;DHT22;3254;47.372;8.512;2023-03-01T00:45:20;0.40;1.00
6443;DHT22;3254;47.372;8.512;2023-03-01T00:47:46;0.40;1.00
6443;DHT22;3254;47.372;8.512;2023-03-01T00:50:12;0.40;1.00
6443;DHT22;3254;47.372;8.512;2023-03-01T00:52:38;0.40;1.00
6443;DHT22;3254;47.372;8.512;2023-03-01T00:55:04;0.40;1.00
6443;DHT22;3254;47.372;8.512;2023-03-01T00:57:30;0.40;1.00
6443;DHT22;3254;47.372;8.512;2023-03-01T00:59:56;0.50;1.00
6443;DHT22;3254;47.372;8.512;2023-03-01T01:02:22;0.50;1.00
6443;DHT22;3254;47.372;8.512;2023-03-01T01:04:48;0.40;1.00
6443;DHT22;3254;47.372;8.512;2023-03-01T01:07:14;0.40;1.00
6443;DHT22;3254;47.372;8.512;2023-03-01T01:09:40;0.40;1.00
6443;DHT22;3254;47.372;8.512;2023-03-01T01:12:05;0.40;1.00
6443;DHT22;3254;47.372;8.512;2023-03-01T01:14:31;0.40;1.00
6443;DHT22;3254;47.372;8.512;2023-03-01T01:16:57;0.40;1.00
6443;DHT22;3254;47.372;8.512;2023-03-01T01:19:23;0.40;1.00
6443;DHT22;3254;47.372;8.512;2023-03-01T01:21:49;0.40;1.00
6443;DHT22;3254;47.372;8.512;2023-03-01T01:24:16;0.40;1.00
6443;DHT22;3254;47.372;8.512;2023-03-01T01:26:42;0.40;1.00
6443;DHT22;3254;47.372;8.512;2023-03-01T01:29:08;0.40;1.00
6443;DHT22;3254;47.372;8.512;2023-03-01T01:31:35;0.40;1.00
6443;DHT22;3254;47.372;8.512;2023-03-01T01:34:03;0.40;1.00
6443;DHT22;3254;47.372;8.512;2023-03-01T01:36:29;0.40;1.00
6443;DHT22;3254;47.372;8.512;2023-03-01T01:38:56;0.40;1.00
6443;DHT22;3254;47.372;8.512;2023-03-01T01:41:23;0.50;1.00
6443;DHT22;3254;47.372;8.512;2023-03-01T01:46:40;0.50;1.00
6443;DHT22;3254;47.372;8.512;2023-03-01T01:55:19;0.60;1.00
6443;DHT22;3254;47.372;8.512;2023-03-01T01:57:49;0.60;1.00
6443;DHT22;3254;47.372;8.512;2023-03-01T02:00:20;0.60;1.00
6443;DHT22;3254;47.372;8.512;2023-03-01T02:02:49;0.60;1.00
6443;DHT22;3254;47.372;8.512;2023-03-01T02:05:29;0.60;1.00
6443;DHT22;3254;47.372;8.512;2023-03-01T02:07:58;0.50;1.00
6443;DHT22;3254;47.372;8.512;2023-03-01T02:10:24;0.50;1.00
6443;DHT22;3254;47.372;8.512;2023-03-01T02:12:51;0.60;1.00
6443;DHT22;3254;47.372;8.512;2023-03-01T02:15:17;0.60;1.00
6443;DHT22;3254;47.372;8.512;2023-03-01T02:17:43;0.60;1.00
6443;DHT22;3254;47.372;8.512;2023-03-01T02:20:13;0.60;1.00
6443;DHT22;3254;47.372;8.512;2023-03-01T02:22:40;0.60;1.00
6443;DHT22;3254;47.372;8.512;2023-03-01T02:27:40;0.60;1.00
6443;DHT22;3254;47.372;8.512;2023-03-01T02:30:08;0.60;1.00
6443;DHT22;3254;47.372;8.512;2023-03-01T02:32:39;0.70;1.00
6443;DHT22;3254;47.372;8.512;2023-03-01T02:35:12;0.70;1.00
6443;DHT22;3254;47.372;8.512;2023-03-01T02:37:40;0.70;1.00
6443;DHT22;3254;47.372;8.512;2023-03-01T02:40:09;0.70;1.00
6443;DHT22;3254;47.372;8.512;2023-03-01T02:42:49;0.70;1.00
6443;DHT22;3254;47.372;8.512;2023-03-01T02:45:16;0.60;1.00
6443;DHT22;3254;47.372;8.512;2023-03-01T02:47:42;0.70;1.00
6443;DHT22;3254;47.372;8.512;2023-03-01T02:55:59;0.70;1.00
6443;DHT22;3254;47.372;8.512;2023-03-01T02:58:24;0.70;1.00
6443;DHT22;3254;47.372;8.512;2023-03-01T03:00:50;0.60;1.00
6443;DHT22;3254;47.372;8.512;2023-03-01T03:03:21;0.70;1.00
6443;DHT22;3254;47.372;8.512;2023-03-01T03:05:47;0.70;1.00
6443;DHT22;3254;47.372;8.512;2023-03-01T03:08:14;0.70;1.00
6443;DHT22;3254;47.372;8.512;2023-03-01T03:10:41;0.70;1.00
6443;DHT22;3254;47.372;8.512;2023-03-01T03:13:15;0.70;1.00
6443;DHT22;3254;47.372;8.512;2023-03-01T03:15:41;0.80;1.00
6443;DHT22;3254;47.372;8.512;2023-03-01T03:18:10;0.80;1.00
6443;DHT22;3254;47.372;8.512;2023-03-01T03:20:38;0.80;1.00
6443;DHT22;3254;47.372;8.512;2023-03-01T03:23:04;0.80;1.00
6443;DHT22;3254;47.372;8.512;2023-03-01T03:25:30;0.80;1.00
6443;DHT22;3254;47.372;8.512;2023-03-01T03:27:56;0.80;1.00
6443;DHT22;3254;47.372;8.512;2023-03-01T03:30:29;0.70;1.00
6443;DHT22;3254;47.372;8.512;2023-03-01T03:32:56;0.70;1.00
6443;DHT22;3254;47.372;8.512;2023-03-01T03:35:25;0.80;1.00
6443;DHT22;3254;47.372;8.512;2023-03-01T03:37:51;0.80;1.00
6443;DHT22;3254;47.372;8.512;2023-03-01T03:40:40;0.80;1.00
6443;DHT22;3254;47.372;8.512;2023-03-01T03:43:09;0.80;1.00
6443;DHT22;3254;47.372;8.512;2023-03-01T03:45:35;0.90;1.00
6443;DHT22;3254;47.372;8.512;2023-03-01T03:48:02;0.90;1.00
6443;DHT22;3254;47.372;8.512;2023-03-01T03:50:28;0.90;1.00
6443;DHT22;3254;47.372;8.512;2023-03-01T03:52:54;0.90;1.00
6443;DHT22;3254;47.372;8.512;2023-03-01T03:55:19;0.90;1.00
6443;DHT22;3254;47.372;8.512;2023-03-01T03:57:46;0.90;1.00
6443;DHT22;3254;47.372;8.512;2023-03-01T04:00:21;0.90;1.00
6443;DHT22;3254;47.372;8.512;2023-03-01T04:02:49;0.90;1.00
6443;DHT22;3254;47.372;8.512;2023-03-01T04:05:17;0.90;1.00
6443;DHT22;3254;47.372;8.512;2023-03-01T04:07:44;0.90;1.00
6443;DHT22;3254;47.372;8.512;2023-03-01T04:12:41;0.90;1.00
6443;DHT22;3254;47.372;8.512;2023-03-01T04:15:09;0.90;1.00
6443;DHT22;3254;47.372;8.512;2023-03-01T04:17:42;1.00;1.00
6443;DHT22;3254;47.372;8.512;2023-03-01T04:20:17;1.00;1.00
6443;DHT22;3254;47.372;8.512;2023-03-01T04:22:43;0.90;1.00
6443;DHT22;3254;47.372;8.512;2023-03-01T04:25:12;1.00;1.00
6443;DHT22;3254;47.372;8.512;2023-03-01T04:27:40;1.00;1.00
6443;DHT22;3254;47.372;8.512;2023-03-01T04:30:07;1.00;1.00
6443;DHT22;3254;47.372;8.512;2023-03-01T04:32:33;1.00;1.00
6443;DHT22;3254;47.372;8.512;2023-03-01T04:34:59;1.00;1.00
6443;DHT22;3254;47.372;8.512;2023-03-01T04:37:25;1.00;1.00
6443;DHT22;3254;47.372;8.512;2023-03-01T04:39:50;1.00;1.00
6443;DHT22;3254;47.372;8.512;2023-03-01T04:42:16;1.00;1.00
6443;DHT22;3254;47.372;8.512;2023-03-01T04:44:42;1.00;1.00
6443;DHT22;3254;47.372;8.512;2023-03-01T04:47:08;1.00;1.00
6443;DHT22;3254;47.372;8.512;2023-03-01T04:49:34;0.90;1.00
6443;DHT22;3254;47.372;8.512;2023-03-01T04:51:59;0.90;1.00
6443;DHT22;3254;47.372;8.512;2023-03-01T04:54:33;0.90;1.00
6443;DHT22;3254;47.372;8.512;2023-03-01T04:56:59;1.00;1.00
6443;DHT22;3254;47.372;8.512;2023-03-01T04:59:25;1.00;1.00
6443;DHT22;3254;47.372;8.512;2023-03-01T05:01:52;1.00;1.00
6443;DHT22;3254;47.372;8.512;2023-03-01T05:04:17;1.00;1.00
6443;DHT22;3254;47.372;8.512;2023-03-01T05:06:43;1.00;1.00
6443;DHT22;3254;47.372;8.512;2023-03-01T05:09:09;1.00;1.00
6443;DHT22;3254;47.372;8.512;2023-03-01T05:11:36;1.00;1.00
6443;DHT22;3254;47.372;8.512;2023-03-01T05:14:03;1.00;1.00
6443;DHT22;3254;47.372;8.512;2023-03-01T05:16:29;1.10;1.00
6443;DHT22;3254;47.372;8.512;2023-03-01T05:18:55;1.10;1.00
6443;DHT22;3254;47.372;8.512;2023-03-01T05:21:22;1.10;1.00
6443;DHT22;3254;47.372;8.512;2023-03-01T05:23:48;1.10;1.00
6443;DHT22;3254;47.372;8.512;2023-03-01T05:26:14;1.10;1.00
6443;DHT22;3254;47.372;8.512;2023-03-01T05:28:40;1.00;1.00
6443;DHT22;3254;47.372;8.512;2023-03-01T05:31:06;1.00;1.00
6443;DHT22;3254;47.372;8.512;2023-03-01T05:33:38;1.10;1.00
6443;DHT22;3254;47.372;8.512;2023-03-01T05:36:06;1.10;1.00
6443;DHT22;3254;47.372;8.512;2023-03-01T05:38:32;1.10;1.00
6443;DHT22;3254;47.372;8.512;2023-03-01T05:40:58;1.10;1.00
6443;DHT22;3254;47.372;8.512;2023-03-01T05:43:23;1.10;1.00
6443;DHT22;3254;47.372;8.512;2023-03-01T05:45:49;1.10;1.00
6443;DHT22;3254;47.372;8.512;2023-03-01T05:48:14;1.10;1.00
6443;DHT22;3254;47.372;8.512;2023-03-01T05:50:42;1.10;1.00
6443;DHT22;3254;47.372;8.512;2023-03-01T05:53:15;1.10;1.00
6443;DHT22;3254;47.372;8.512;2023-03-01T05:55:41;1.00;1.00
6443;DHT22;3254;47.372;8.512;2023-03-01T05:58:11;1.00;1.00
6443;DHT22;3254;47.372;8.512;2023-03-01T06:00:37;1.10;1.00
6443;DHT22;3254;47.372;8.512;2023-03-01T06:03:02;1.10;1.00
6443;DHT22;3254;47.372;8.512;2023-03-01T06:05:28;1.00;1.00
6443;DHT22;3254;47.372;8.512;2023-03-01T06:07:54;1.00;1.00
6443;DHT22;3254;47.372;8.512;2023-03-01T06:10:21;1.00;1.00
6443;DHT22;3254;47.372;8.512;2023-03-01T06:12:47;1.10;1.00
6443;DHT22;3254;47.372;8.512;2023-03-01T06:15:14;1.10;1.00
6443;DHT22;3254;47.372;8.512;2023-03-01T06:17:41;1.10;1.00
6443;DHT22;3254;47.372;8.512;2023-03-01T06:20:16;1.10;1.00
6443;DHT22;3254;47.372;8.512;2023-03-01T06:22:43;1.10;1.00
6443;DHT22;3254;47.372;8.512;2023-03-01T06:25:10;1.10;1.00
6443;DHT22;3254;47.372;8.512;2023-03-01T06:27:36;1.10;1.00
6443;DHT22;3254;47.372;8.512;2023-03-01T06:30:02;1.10;1.00
6443;DHT22;3254;47.372;8.512;2023-03-01T06:32:28;1.10;1.00
6443;DHT22;3254;47.372;8.512;2023-03-01T06:34:53;1.10;1.00
6443;DHT22;3254;47.372;8.512;2023-03-01T06:37:19;1.10;1.00
6443;DHT22;3254;47.372;8.512;2023-03-01T06:39:45;1.20;1.00
6443;DHT22;3254;47.372;8.512;2023-03-01T06:42:10;1.20;1.00
6443;DHT22;3254;47.372;8.512;2023-03-01T06:44:36;1.20;1.00
6443;DHT22;3254;47.372;8.512;2023-03-01T06:47:02;1.20;1.00
6443;DHT22;3254;47.372;8.512;2023-03-01T06:49:28;1.20;1.00
6443;DHT22;3254;47.372;8.512;2023-03-01T06:51:54;1.20;1.00
6443;DHT22;3254;47.372;8.512;2023-03-01T06:54:19;1.30;1.00
6443;DHT22;3254;47.372;8.512;2023-03-01T06:56:48;1.20;1.00
6443;DHT22;3254;47.372;8.512;2023-03-01T06:59:13;1.20;1.00
6443;DHT22;3254;47.372;8.512;2023-03-01T07:01:39;1.20;1.00
6443;DHT22;3254;47.372;8.512;2023-03-01T07:04:04;1.30;1.00
6443;DHT22;3254;47.372;8.512;2023-03-01T07:06:30;1.20;1.00
6443;DHT22;3254;47.372;8.512;2023-03-01T07:08:56;1.30;1.00
6443;DHT22;3254;47.372;8.512;2023-03-01T07:11:21;1.30;1.00
6443;DHT22;3254;47.372;8.512;2023-03-01T07:13:47;1.30;1.00
6443;DHT22;3254;47.372;8.512;2023-03-01T07:16:13;1.40;1.00
6443;DHT22;3254;47.372;8.512;2023-03-01T07:18:40;1.30;1.00
6443;DHT22;3254;47.372;8.512;2023-03-01T07:21:09;1.40;1.00
6443;DHT22;3254;47.372;8.512;2023-03-01T07:23:36;1.30;1.00
6443;DHT22;3254;47.372;8.512;2023-03-01T07:26:02;1.30;1.00
6443;DHT22;3254;47.372;8.512;2023-03-01T07:28:27;1.40;1.00
6443;DHT22;3254;47.372;8.512;2023-03-01T07:30:54;1.40;1.00
6443;DHT22;3254;47.372;8.512;2023-03-01T07:33:20;1.40;1.00
6443;DHT22;3254;47.372;8.512;2023-03-01T07:35:46;1.40;1.00
6443;DHT22;3254;47.372;8.512;2023-03-01T07:38:11;1.40;1.00
6443;DHT22;3254;47.372;8.512;2023-03-01T07:40:37;1.50;1.00
6443;DHT22;3254;47.372;8.512;2023-03-01T07:43:02;1.40;1.00
6443;DHT22;3254;47.372;8.512;2023-03-01T07:45:28;1.40;1.00
6443;DHT22;3254;47.372;8.512;2023-03-01T07:47:54;1.50;1.00
6443;DHT22;3254;47.372;8.512;2023-03-01T07:50:20;1.50;1.00
6443;DHT22;3254;47.372;8.512;2023-03-01T07:52:46;1.60;1.00
6443;DHT22;3254;47.372;8.512;2023-03-01T07:55:12;1.50;1.00
6443;DHT22;3254;47.372;8.512;2023-03-01T07:57:38;1.60;1.00
6443;DHT22;3254;47.372;8.512;2023-03-01T08:00:04;1.60;1.00
6443;DHT22;3254;47.372;8.512;2023-03-01T08:02:31;1.60;1.00
6443;DHT22;3254;47.372;8.512;2023-03-01T08:04:56;1.60;1.00
6443;DHT22;3254;47.372;8.512;2023-03-01T08:07:22;1.60;1.00
6443;DHT22;3254;47.372;8.512;2023-03-01T08:09:47;1.60;1.00
6443;DHT22;3254;47.372;8.512;2023-03-01T08:12:13;1.70;1.00
6443;DHT22;3254;47.372;8.512;2023-03-01T08:14:38;1.60;1.00
6443;DHT22;3254;47.372;8.512;2023-03-01T08:17:04;1.60;1.00
6443;DHT22;3254;47.372;8.512;2023-03-01T08:19:30;1.70;1.00
6443;DHT22;3254;47.372;8.512;2023-03-01T08:21:55;1.70;1.00
6443;DHT22;3254;47.372;8.512;2023-03-01T08:24:23;1.80;1.00
6443;DHT22;3254;47.372;8.512;2023-03-01T08:26:49;1.80;1.00
6443;DHT22;3254;47.372;8.512;2023-03-01T08:29:15;1.90;1.00
6443;DHT22;3254;47.372;8.512;2023-03-01T08:31:40;2.00;1.00
6443;DHT22;3254;47.372;8.512;2023-03-01T08:34:08;2.00;1.00
6443;DHT22;3254;47.372;8.512;2023-03-01T08:36:37;2.10;1.00
6443;DHT22;3254;47.372;8.512;2023-03-01T08:39:03;2.10;1.00
6443;DHT22;3254;47.372;8.512;2023-03-01T08:41:29;2.00;1.00
6443;DHT22;3254;47.372;8.512;2023-03-01T08:43:55;2.10;1.00
6443;DHT22;3254;47.372;8.512;2023-03-01T08:46:28;2.10;1.00
6443;DHT22;3254;47.372;8.512;2023-03-01T08:48:54;2.10;1.00
6443;DHT22;3254;47.372;8.512;2023-03-01T08:51:20;2.10;1.00
6443;DHT22;3254;47.372;8.512;2023-03-01T08:53:47;2.20;1.00
6443;DHT22;3254;47.372;8.512;2023-03-01T08:56:13;2.10;1.00
6443;DHT22;3254;47.372;8.512;2023-03-01T08:58:39;2.00;1.00
6443;DHT22;3254;47.372;8.512;2023-03-01T09:01:10;1.90;1.00
6443;DHT22;3254;47.372;8.512;2023-03-01T09:03:36;1.90;1.00
6443;DHT22;3254;47.372;8.512;2023-03-01T09:06:03;1.90;1.00
6443;DHT22;3254;47.372;8.512;2023-03-01T09:08:29;1.90;1.00
6443;DHT22;3254;47.372;8.512;2023-03-01T09:10:55;1.90;1.00
6443;DHT22;3254;47.372;8.512;2023-03-01T09:13:21;2.00;1.00
6443;DHT22;3254;47.372;8.512;2023-03-01T09:15:50;2.00;1.00
6443;DHT22;3254;47.372;8.512;2023-03-01T09:18:15;2.00;1.00
6443;DHT22;3254;47.372;8.512;2023-03-01T09:20:41;2.00;1.00
6443;DHT22;3254;47.372;8.512;2023-03-01T09:23:07;2.00;1.00
6443;DHT22;3254;47.372;8.512;2023-03-01T09:25:34;2.10;1.00
6443;DHT22;3254;47.372;8.512;2023-03-01T09:28:00;2.10;1.00
6443;DHT22;3254;47.372;8.512;2023-03-01T09:30:25;2.10;1.00
6443;DHT22;3254;47.372;8.512;2023-03-01T09:32:51;2.20;1.00
6443;DHT22;3254;47.372;8.512;2023-03-01T09:35:17;2.20;1.00
6443;DHT22;3254;47.372;8.512;2023-03-01T09:37:45;2.20;1.00
6443;DHT22;3254;47.372;8.512;2023-03-01T09:40:20;2.20;1.00
6443;DHT22;3254;47.372;8.512;2023-03-01T09:43:01;2.30;1.00
6443;DHT22;3254;47.372;8.512;2023-03-01T09:45:33;2.30;1.00
6443;DHT22;3254;47.372;8.512;2023-03-01T09:48:00;2.30;1.00
6443;DHT22;3254;47.372;8.512;2023-03-01T09:50:31;2.30;1.00
6443;DHT22;3254;47.372;8.512;2023-03-01T09:53:06;2.40;1.00
6443;DHT22;3254;47.372;8.512;2023-03-01T09:55:39;2.50;1.00
6443;DHT22;3254;47.372;8.512;2023-03-01T09:58:17;2.50;1.00
6443;DHT22;3254;47.372;8.512;2023-03-01T10:00:49;2.50;1.00
6443;DHT22;3254;47.372;8.512;2023-03-01T10:03:26;2.50;1.00
6443;DHT22;3254;47.372;8.512;2023-03-01T10:06:01;2.60;1.00
6443;DHT22;3254;47.372;8.512;2023-03-01T10:08:53;2.50;1.00
6443;DHT22;3254;47.372;8.512;2023-03-01T10:11:38;2.50;1.00
6443;DHT22;3254;47.372;8.512;2023-03-01T10:14:15;2.40;1.00
6443;DHT22;3254;47.372;8.512;2023-03-01T10:16:52;2.40;1.00
6443;DHT22;3254;47.372;8.512;2023-03-01T10:19:27;2.30;1.00
6443;DHT22;3254;47.372;8.512;2023-03-01T10:22:00;2.30;1.00
6443;DHT22;3254;47.372;8.512;2023-03-01T10:24:32;2.30;1.00
6443;DHT22;3254;47.372;8.512;2023-03-01T10:27:05;2.40;1.00
6443;DHT22;3254;47.372;8.512;2023-03-01T10:30:02;2.40;1.00
6443;DHT22;3254;47.372;8.512;2023-03-01T10:32:29;2.50;1.00
6443;DHT22;3254;47.372;8.512;2023-03-01T10:34:55;2.50;1.00
6443;DHT22;3254;47.372;8.512;2023-03-01T10:37:22;2.50;1.00
6443;DHT22;3254;47.372;8.512;2023-03-01T10:40:08;2.50;1.00
6443;DHT22;3254;47.372;8.512;2023-03-01T10:42:45;2.60;1.00
6443;DHT22;3254;47.372;8.512;2023-03-01T10:48:24;2.60;1.00
6443;DHT22;3254;47.372;8.512;2023-03-01T10:51:14;2.60;1.00
6443;DHT22;3254;47.372;8.512;2023-03-01T10:53:43;2.50;1.00
6443;DHT22;3254;47.372;8.512;2023-03-01T10:56:14;2.50;1.00
6443;DHT22;3254;47.372;8.512;2023-03-01T10:59:00;2.50;1.00
6443;DHT22;3254;47.372;8.512;2023-03-01T11:01:31;2.50;1.00
6443;DHT22;3254;47.372;8.512;2023-03-01T11:06:37;2.70;1.00
6443;DHT22;3254;47.372;8.512;2023-03-01T11:09:19;2.70;1.00
6443;DHT22;3254;47.372;8.512;2023-03-01T11:11:45;2.70;1.00
6443;DHT22;3254;47.372;8.512;2023-03-01T11:14:25;2.70;1.00
6443;DHT22;3254;47.372;8.512;2023-03-01T11:17:04;2.70;1.00
6443;DHT22;3254;47.372;8.512;2023-03-01T11:19:30;2.70;1.00
6443;DHT22;3254;47.372;8.512;2023-03-01T11:22:12;2.60;1.00
6443;DHT22;3254;47.372;8.512;2023-03-01T11:24:46;2.70;1.00
6443;DHT22;3254;47.372;8.512;2023-03-01T11:32:21;3.00;1.00
6443;DHT22;3254;47.372;8.512;2023-03-01T11:35:00;3.00;1.00
6443;DHT22;3254;47.372;8.512;2023-03-01T11:37:38;3.00;1.00
6443;DHT22;3254;47.372;8.512;2023-03-01T11:43:00;3.10;1.00
6443;DHT22;3254;47.372;8.512;2023-03-01T11:45:33;3.00;1.00
6443;DHT22;3254;47.372;8.512;2023-03-01T11:51:00;2.90;1.00
6443;DHT22;3254;47.372;8.512;2023-03-01T12:04:34;3.20;1.00
6443;DHT22;3254;47.372;8.512;2023-03-01T12:07:01;3.20;1.00
6443;DHT22;3254;47.372;8.512;2023-03-01T12:15:20;3.20;1.00
6443;DHT22;3254;47.372;8.512;2023-03-01T12:23:39;3.30;1.00
6443;DHT22;3254;47.372;8.512;2023-03-01T12:32:00;3.10;1.00
6443;DHT22;3254;47.372;8.512;2023-03-01T12:37:21;3.20;1.00
6443;DHT22;3254;47.372;8.512;2023-03-01T12:45:48;3.20;1.00
6443;DHT22;3254;47.372;8.512;2023-03-01T12:51:07;3.20;1.00
6443;DHT22;3254;47.372;8.512;2023-03-01T12:56:09;3.20;1.00
6443;DHT22;3254;47.372;8.512;2023-03-01T12:58:50;3.10;1.00
6443;DHT22;3254;47.372;8.512;2023-03-01T13:03:56;3.10;1.00
6443;DHT22;3254;47.372;8.512;2023-03-01T13:09:30;2.90;1.00
6443;DHT22;3254;47.372;8.512;2023-03-01T13:12:01;2.90;1.00
6443;DHT22;3254;47.372;8.512;2023-03-01T13:14:35;3.00;1.00
6443;DHT22;3254;47.372;8.512;2023-03-01T13:17:00;3.10;1.00
6443;DHT22;3254;47.372;8.512;2023-03-01T13:19:28;3.20;1.00
6443;DHT22;3254;47.372;8.512;2023-03-01T13:22:29;3.20;1.00
6443;DHT22;3254;47.372;8.512;2023-03-01T13:25:12;3.20;1.00
6443;DHT22;3254;47.372;8.512;2023-03-01T13:27:38;3.30;1.00
6443;DHT22;3254;47.372;8.512;2023-03-01T13:30:11;3.40;1.00
6443;DHT22;3254;47.372;8.512;2023-03-01T13:32:50;3.30;1.00
6443;DHT22;3254;47.372;8.512;2023-03-01T13:37:43;3.10;1.00
6443;DHT22;3254;47.372;8.512;2023-03-01T13:45:34;3.20;1.00
6443;DHT22;3254;47.372;8.512;2023-03-01T13:48:28;3.20;1.00
6443;DHT22;3254;47.372;8.512;2023-03-01T13:50:59;3.20;1.00
6443;DHT22;3254;47.372;8.512;2023-03-01T19:36:56;2.40;1.00
6443;DHT22;3254;47.372;8.512;2023-03-01T19:39:22;2.40;1.00
6443;DHT22;3254;47.372;8.512;2023-03-01T19:41:48;2.40;1.00
6443;DHT22;3254;47.372;8.512;2023-03-01T19:44:13;2.50;1.00
6443;DHT22;3254;47.372;8.512;2023-03-01T19:46:39;2.40;1.00
6443;DHT22;3254;47.372;8.512;2023-03-01T19:49:08;2.40;1.00
6443;DHT22;3254;47.372;8.512;2023-03-01T19:51:34;2.40;1.00
6443;DHT22;3254;47.372;8.512;2023-03-01T19:54:04;2.40;1.00
6443;DHT22;3254;47.372;8.512;2023-03-01T19:56:32;2.40;1.00
6443;DHT22;3254;47.372;8.512;2023-03-01T19:58:58;2.40;1.00
6443;DHT22;3254;47.372;8.512;2023-03-01T20:01:26;2.40;1.00
6443;DHT22;3254;47.372;8.512;2023-03-01T20:03:56;2.40;1.00
6443;DHT22;3254;47.372;8.512;2023-03-01T20:06:22;2.40;1.00
6443;DHT22;3254;47.372;8.512;2023-03-01T20:08:48;2.40;1.00
6443;DHT22;3254;47.372;8.512;2023-03-01T20:11:14;2.40;1.00
6443;DHT22;3254;47.372;8.512;2023-03-01T20:13:42;2.40;1.00
6443;DHT22;3254;47.372;8.512;2023-03-01T20:16:09;2.40;1.00
6443;DHT22;3254;47.372;8.512;2023-03-01T20:18:36;2.50;1.00
6443;DHT22;3254;47.372;8.512;2023-03-01T20:21:02;2.50;1.00
6443;DHT22;3254;47.372;8.512;2023-03-01T20:23:29;2.50;1.00
6443;DHT22;3254;47.372;8.512;2023-03-01T20:26:09;2.50;1.00
6443;DHT22;3254;47.372;8.512;2023-03-01T20:28:39;2.50;1.00
6443;DHT22;3254;47.372;8.512;2023-03-01T20:31:08;2.50;1.00
6443;DHT22;3254;47.372;8.512;2023-03-01T20:33:36;2.50;1.00
6443;DHT22;3254;47.372;8.512;2023-03-01T20:36:03;2.50;1.00
6443;DHT22;3254;47.372;8.512;2023-03-01T20:38:29;2.50;1.00
6443;DHT22;3254;47.372;8.512;2023-03-01T20:41:22;2.50;1.00
6443;DHT22;3254;47.372;8.512;2023-03-01T20:43:53;2.50;1.00
6443;DHT22;3254;47.372;8.512;2023-03-01T20:46:22;2.50;1.00
6443;DHT22;3254;47.372;8.512;2023-03-01T20:48:49;2.50;1.00
6443;DHT22;3254;47.372;8.512;2023-03-01T20:51:18;2.40;1.00
6443;DHT22;3254;47.372;8.512;2023-03-01T20:53:45;2.50;1.00
6443;DHT22;3254;47.372;8.512;2023-03-01T20:56:12;2.50;1.00
6443;DHT22;3254;47.372;8.512;2023-03-01T20:58:40;2.50;1.00
6443;DHT22;3254;47.372;8.512;2023-03-01T21:01:11;2.50;1.00
6443;DHT22;3254;47.372;8.512;2023-03-01T21:03:38;2.50;1.00
6443;DHT22;3254;47.372;8.512;2023-03-01T21:06:07;2.50;1.00
6443;DHT22;3254;47.372;8.512;2023-03-01T21:08:33;2.50;1.00
6443;DHT22;3254;47.372;8.512;2023-03-01T21:11:01;2.50;1.00
6443;DHT22;3254;47.372;8.512;2023-03-01T21:13:27;2.50;1.00
6443;DHT22;3254;47.372;8.512;2023-03-01T21:16:00;2.50;1.00
6443;DHT22;3254;47.372;8.512;2023-03-01T21:18:28;2.40;1.00
6443;DHT22;3254;47.372;8.512;2023-03-01T21:21:01;2.50;1.00
6443;DHT22;3254;47.372;8.512;2023-03-01T21:23:28;2.50;1.00
6443;DHT22;3254;47.372;8.512;2023-03-01T21:26:10;2.50;1.00
6443;DHT22;3254;47.372;8.512;2023-03-01T21:28:36;2.40;1.00
6443;DHT22;3254;47.372;8.512;2023-03-01T21:31:23;2.50;1.00
6443;DHT22;3254;47.372;8.512;2023-03-01T21:33:52;2.40;1.00
6443;DHT22;3254;47.372;8.512;2023-03-01T21:36:19;2.40;1.00
6443;DHT22;3254;47.372;8.512;2023-03-01T21:38:46;2.40;1.00
6443;DHT22;3254;47.372;8.512;2023-03-01T21:41:23;2.40;1.00
6443;DHT22;3254;47.372;8.512;2023-03-01T21:43:54;2.40;1.00
6443;DHT22;3254;47.372;8.512;2023-03-01T21:46:23;2.40;1.00
6443;DHT22;3254;47.372;8.512;2023-03-01T21:48:51;2.40;1.00
6443;DHT22;3254;47.372;8.512;2023-03-01T21:51:19;2.50;1.00
6443;DHT22;3254;47.372;8.512;2023-03-01T21:53:45;2.40;1.00
6443;DHT22;3254;47.372;8.512;2023-03-01T21:56:25;2.50;1.00
6443;DHT22;3254;47.372;8.512;2023-03-01T21:58:52;2.40;1.00
6443;DHT22;3254;47.372;8.512;2023-03-01T22:01:23;2.40;1.00
6443;DHT22;3254;47.372;8.512;2023-03-01T22:03:49;2.40;1.00
6443;DHT22;3254;47.372;8.512;2023-03-01T22:06:18;2.40;1.00
6443;DHT22;3254;47.372;8.512;2023-03-01T22:08:55;2.40;1.00
6443;DHT22;3254;47.372;8.512;2023-03-01T22:11:22;2.50;1.00
6443;DHT22;3254;47.372;8.512;2023-03-01T22:13:50;2.50;1.00
6443;DHT22;3254;47.372;8.512;2023-03-01T22:16:18;2.50;1.00
6443;DHT22;3254;47.372;8.512;2023-03-01T22:18:44;2.40;1.00
6443;DHT22;3254;47.372;8.512;2023-03-01T22:21:10;2.40;1.00
6443;DHT22;3254;47.372;8.512;2023-03-01T22:23:37;2.40;1.00
6443;DHT22;3254;47.372;8.512;2023-03-01T22:26:03;2.40;1.00
6443;DHT22;3254;47.372;8.512;2023-03-01T22:28:32;2.40;1.00
6443;DHT22;3254;47.372;8.512;2023-03-01T22:31:01;2.40;1.00
6443;DHT22;3254;47.372;8.512;2023-03-01T22:33:26;2.40;1.00
6443;DHT22;3254;47.372;8.512;2023-03-01T22:35:54;2.40;1.00
6443;DHT22;3254;47.372;8.512;2023-03-01T22:38:20;2.40;1.00
6443;DHT22;3254;47.372;8.512;2023-03-01T22:40:55;2.40;1.00
6443;DHT22;3254;47.372;8.512;2023-03-01T22:43:20;2.50;1.00
6443;DHT22;3254;47.372;8.512;2023-03-01T22:45:46;2.50;1.00
6443;DHT22;3254;47.372;8.512;2023-03-01T22:48:11;2.50;1.00
6443;DHT22;3254;47.372;8.512;2023-03-01T22:50:40;2.50;1.00
6443;DHT22;3254;47.372;8.512;2023-03-01T22:53:05;2.40;1.00
6443;DHT22;3254;47.372;8.512;2023-03-01T22:55:31;2.40;1.00
6443;DHT22;3254;47.372;8.512;2023-03-01T22:57:57;2.40;1.00
6443;DHT22;3254;47.372;8.512;2023-03-01T23:00:22;2.40;1.00
6443;DHT22;3254;47.372;8.512;2023-03-01T23:02:48;2.40;1.00
6443;DHT22;3254;47.372;8.512;2023-03-01T23:05:14;2.40;1.00
6443;DHT22;3254;47.372;8.512;2023-03-01T23:07:39;2.40;1.00
6443;DHT22;3254;47.372;8.512;2023-03-01T23:10:05;2.40;1.00
6443;DHT22;3254;47.372;8.512;2023-03-01T23:12:31;2.40;1.00
6443;DHT22;3254;47.372;8.512;2023-03-01T23:14:57;2.40;1.00
6443;DHT22;3254;47.372;8.512;2023-03-01T23:17:23;2.50;1.00
6443;DHT22;3254;47.372;8.512;2023-03-01T23:19:49;2.50;1.00
6443;DHT22;3254;47.372;8.512;2023-03-01T23:22:19;2.50;1.00
6443;DHT22;3254;47.372;8.512;2023-03-01T23:24:45;2.50;1.00
6443;DHT22;3254;47.372;8.512;2023-03-01T23:27:10;2.50;1.00
6443;DHT22;3254;47.372;8.512;2023-03-01T23:29:40;2.40;1.00
6443;DHT22;3254;47.372;8.512;2023-03-01T23:32:07;2.50;1.00
6443;DHT22;3254;47.372;8.512;2023-03-01T23:34:33;2.40;1.00
6443;DHT22;3254;47.372;8.512;2023-03-01T23:36:59;2.40;1.00
6443;DHT22;3254;47.372;8.512;2023-03-01T23:39:25;2.40;1.00
6443;DHT22;3254;47.372;8.512;2023-03-01T23:41:50;2.50;1.00
6443;DHT22;3254;47.372;8.512;2023-03-01T23:44:18;2.50;1.00
6443;DHT22;3254;47.372;8.512;2023-03-01T23:46:45;2.50;1.00
6443;DHT22;3254;47.372;8.512;2023-03-01T23:49:16;2.50;1.00
6443;DHT22;3254;47.372;8.512;2023-03-01T23:51:45;2.50;1.00
6443;DHT22;3254;47.372;8.512;2023-03-01T23:54:16;2.50;1.00
6443;DHT22;3254;47.372;8.512;2023-03-01T23:56:44;2.50;1.00
6443;DHT22;3254;47.372;8.512;2023-03-01T23:59:17;2.50;1.00
